EGCN/DSA METAR and TAF weather

Enter ICAO airport designator
Station Type Date Time Source
EGCN METAR 2019/10/19 08:20 UTC NOAA

EGCN 190820Z 20006KT 9999 BKN031 09/08 Q0997


Station Type Date Time Source
EGCN Decoded METAR 2019/10/19 08:20 UTC NOAA

Station name not available
Oct 19, 2019 - 04:20 AM EDT / 2019.10.19 0820 UTC
Wind: from the SSW (200 degrees) at 7 MPH (6 KT):0
Visibility: greater than 7 mile(s):0
Sky conditions: mostly cloudy
Temperature: 48 F (9 C)
Dew Point: 46 F (8 C)
Relative Humidity: 93%
Pressure (altimeter): 29.44 in. Hg (0997 hPa)
ob: EGCN 190820Z 20006KT 9999 BKN031 09/08 Q0997
cycle: 8

Station Type Date Time Source
EGCN TAF 2019/10/19 06:00 UTC NOAA

TAF EGCN 190504Z 1906/2006 17008KT 9999 SCT035 PROB30
TEMPO 1906/1909 -SHRA BKN006
BECMG 1909/1912 26010KT
TEMPO 1909/1919 6000 SHRA
BECMG 1920/1923 32006KT PROB30 2000/2006 4000 BR BKN004

Example: see airport list